Time;durP1;ratioP1;P1;durP2;ratioP2;P2;SDS_P1;SDS_P2;PMS_P1;PMS_P2;Temp;Humidity;BMP_temperature;BMP_pressure;BME280_temperature;BME280_humidity;BME280_pressure;Samples;Min_cycle;Max_cycle;Signal;HPM_P1;HPM_P2
2023/08/14 00:00:09;;;;;;;5.10;4.50;;;;;;;21.96;100.00;98240.75;4155173;28;20689;-74
2023/08/14 00:02:16;;;;;;;6.83;4.57;;;;;;;21.96;100.00;98238.09;4155457;28;20734;-74
2023/08/14 00:04:19;;;;;;;6.80;4.80;;;;;;;21.96;100.00;98237.25;4136719;28;20656;-74
2023/08/14 00:06:23;;;;;;;7.13;4.83;;;;;;;21.94;100.00;98234.78;4156821;28;20641;-75
2023/08/14 00:08:25;;;;;;;5.83;4.33;;;;;;;21.94;100.00;98236.63;4143439;28;20728;-75
2023/08/14 00:10:28;;;;;;;5.30;4.80;;;;;;;21.93;100.00;98229.63;4156970;28;21275;-74
2023/08/14 00:12:33;;;;;;;8.10;3.90;;;;;;;21.94;100.00;98231.31;4137876;28;20726;-75
2023/08/14 00:14:36;;;;;;;5.17;4.10;;;;;;;21.93;100.00;98232.28;4155049;28;20739;-76
2023/08/14 00:16:39;;;;;;;4.87;4.27;;;;;;;21.92;100.00;98236.78;4142187;28;20638;-74
2023/08/14 00:18:42;;;;;;;6.80;4.17;;;;;;;21.92;100.00;98231.47;4152884;28;20628;-74
2023/08/14 00:20:45;;;;;;;5.23;4.70;;;;;;;21.90;100.00;98240.59;4137417;28;20638;-75
2023/08/14 00:22:48;;;;;;;4.70;4.30;;;;;;;21.89;100.00;98230.97;4146663;28;21563;-75
2023/08/14 00:24:52;;;;;;;6.50;3.90;;;;;;;21.88;100.00;98227.50;4145217;28;20641;-75
2023/08/14 00:26:55;;;;;;;5.60;3.90;;;;;;;21.88;100.00;98231.97;4151713;28;21216;-74
2023/08/14 00:28:59;;;;;;;4.47;4.03;;;;;;;21.84;100.00;98231.47;4143127;28;20652;-75
2023/08/14 00:31:03;;;;;;;4.63;4.20;;;;;;;21.83;100.00;98234.31;4141486;28;20617;-74
2023/08/14 00:33:06;;;;;;;5.00;4.23;;;;;;;21.82;100.00;98233.47;4129400;28;20680;-75
2023/08/14 00:35:09;;;;;;;5.07;4.10;;;;;;;21.82;100.00;98227.34;4152851;28;20674;-75
2023/08/14 00:37:12;;;;;;;4.20;3.80;;;;;;;21.81;100.00;98231.84;4144316;28;21003;-75
2023/08/14 00:39:16;;;;;;;4.40;4.00;;;;;;;21.79;100.00;98220.53;4145884;28;20657;-74
2023/08/14 00:41:20;;;;;;;7.03;4.67;;;;;;;21.79;100.00;98223.19;4154418;28;20647;-74
2023/08/14 00:43:23;;;;;;;4.37;3.97;;;;;;;21.80;100.00;98226.72;4136328;28;21310;-74
2023/08/14 00:45:28;;;;;;;4.70;4.17;;;;;;;21.79;100.00;98230.34;4150571;28;21172;-75
2023/08/14 00:47:47;;;;;;;4.63;4.00;;;;;;;21.80;100.00;98230.19;4131511;28;21094;-75
2023/08/14 00:49:50;;;;;;;4.80;4.00;;;;;;;21.79;100.00;98227.69;4142870;28;20672;-75
2023/08/14 00:51:54;;;;;;;6.27;4.63;;;;;;;21.79;100.00;98225.84;4152895;28;20637;-74
2023/08/14 00:53:57;;;;;;;6.50;4.57;;;;;;;21.78;100.00;98223.38;4152219;28;20692;-75
2023/08/14 00:56:01;;;;;;;4.70;4.20;;;;;;;21.78;100.00;98226.03;4143523;28;20636;-75
2023/08/14 00:58:04;;;;;;;5.30;4.23;;;;;;;21.77;100.00;98219.91;4130482;28;21534;-74
2023/08/14 01:00:08;;;;;;;5.23;4.73;;;;;;;21.78;100.00;98213.59;4132440;28;20643;-75
2023/08/14 01:02:14;;;;;;;6.90;4.00;;;;;;;21.76;100.00;98214.75;4153868;28;20632;-74
2023/08/14 01:04:18;;;;;;;5.83;3.80;;;;;;;21.76;100.00;98216.59;4156815;28;20640;-74
2023/08/14 01:06:21;;;;;;;3.93;3.53;;;;;;;21.73;100.00;98220.41;4142578;28;20646;-76
2023/08/14 01:08:24;;;;;;;4.50;4.10;;;;;;;21.72;100.00;98216.09;4141627;28;21006;-75
2023/08/14 01:10:36;;;;;;;5.40;4.77;;;;;;;21.72;100.00;98225.88;4135583;28;20666;-74
2023/08/14 01:12:44;;;;;;;5.87;3.90;;;;;;;21.72;100.00;98229.38;4153200;28;20640;-74
2023/08/14 01:14:48;;;;;;;4.87;4.37;;;;;;;21.73;100.00;98230.22;4149683;28;21217;-75
2023/08/14 01:16:54;;;;;;;6.40;4.20;;;;;;;21.73;100.00;98223.06;4152969;28;21261;-77
2023/08/14 01:18:58;;;;;;;5.57;4.43;;;;;;;21.73;100.00;98223.06;4153324;28;20625;-74
2023/08/14 01:21:11;;;;;;;5.63;5.10;;;;;;;21.73;100.00;98225.72;4142019;28;20660;-74
2023/08/14 01:23:22;;;;;;;6.23;4.40;;;;;;;21.73;100.00;98231.03;4158580;28;20620;-81
2023/08/14 01:25:29;;;;;;;4.97;4.30;;;;;;;21.74;100.00;98230.03;4140128;28;20633;-82
2023/08/14 01:27:33;;;;;;;7.23;5.37;;;;;;;21.73;100.00;98228.38;4136473;28;20668;-83
2023/08/14 01:29:36;;;;;;;4.27;3.87;;;;;;;21.74;100.00;98234.50;4144739;28;20661;-82
2023/08/14 01:31:39;;;;;;;5.13;4.30;;;;;;;21.75;100.00;98229.03;4138322;28;21127;-82
2023/08/14 01:33:42;;;;;;;5.73;5.00;;;;;;;21.74;100.00;98230.03;4145208;28;20633;-81
2023/08/14 01:35:47;;;;;;;6.87;4.37;;;;;;;21.72;100.00;98225.88;4138660;28;21188;-83
2023/08/14 01:37:57;;;;;;;5.50;4.90;;;;;;;21.70;100.00;98219.94;4139158;28;20687;-83
2023/08/14 01:40:06;;;;;;;5.00;4.43;;;;;;;21.70;100.00;98212.78;4143942;28;20727;-83
2023/08/14 01:42:17;;;;;;;4.87;4.00;;;;;;;21.70;100.00;98214.63;4154243;28;20758;-83
2023/08/14 01:44:25;;;;;;;4.80;3.93;;;;;;;21.70;100.00;98214.63;4134830;28;21073;-81
2023/08/14 01:46:30;;;;;;;4.67;4.07;;;;;;;21.71;100.00;98213.59;4153875;28;20625;-83
2023/08/14 01:48:34;;;;;;;5.20;4.53;;;;;;;21.70;100.00;98202.16;4155426;28;20697;-83
2023/08/14 01:50:37;;;;;;;5.83;4.30;;;;;;;21.70;100.00;98201.34;4140120;28;21113;-83
2023/08/14 01:52:40;;;;;;;6.70;4.30;;;;;;;21.70;100.00;98204.00;4139605;28;20682;-83
2023/08/14 01:54:43;;;;;;;4.90;4.30;;;;;;;21.69;100.00;98204.97;4127089;28;21015;-83
2023/08/14 01:56:46;;;;;;;6.40;4.20;;;;;;;21.69;100.00;98216.41;4139383;28;20679;-83
2023/08/14 01:58:51;;;;;;;4.57;4.17;;;;;;;21.70;100.00;98215.44;4143846;28;20625;-83
2023/08/14 02:00:57;;;;;;;6.70;4.60;;;;;;;21.71;100.00;98217.09;4144800;28;20654;-82
2023/08/14 02:03:00;;;;;;;5.13;4.30;;;;;;;21.71;100.00;98213.59;4154553;28;20614;-83
2023/08/14 02:05:04;;;;;;;5.00;4.23;;;;;;;21.74;100.00;98221.22;4137477;28;21260;-83
2023/08/14 02:07:09;;;;;;;7.50;4.87;;;;;;;21.75;100.00;98237.00;4137335;28;20643;-83
2023/08/14 02:09:12;;;;;;;5.07;4.57;;;;;;;21.72;100.00;98252.44;4123086;28;20636;-82
2023/08/14 02:11:15;;;;;;;5.00;4.40;;;;;;;21.64;100.00;98274.53;4128198;28;20747;-82
2023/08/14 02:13:18;;;;;;;5.87;4.70;;;;;;;21.55;100.00;98262.25;4128013;28;20775;-83
2023/08/14 02:15:23;;;;;;;7.43;5.40;;;;;;;21.57;100.00;98251.47;4142952;28;20637;-83
2023/08/14 02:17:27;;;;;;;6.47;4.90;;;;;;;21.59;100.00;98237.03;4139611;28;20668;-84
2023/08/14 02:19:32;;;;;;;5.70;5.20;;;;;;;21.64;100.00;98228.56;4138547;28;20637;-83
2023/08/14 02:21:35;;;;;;;6.73;5.23;;;;;;;21.66;100.00;98238.00;4155849;28;20632;-82
2023/08/14 02:23:40;;;;;;;5.90;5.30;;;;;;;21.67;100.00;98241.50;4144867;28;20759;-83
2023/08/14 02:25:44;;;;;;;7.17;4.90;;;;;;;21.69;100.00;98242.97;4144444;28;20627;-83
2023/08/14 02:27:47;;;;;;;5.10;4.60;;;;;;;21.66;100.00;98232.69;4142950;28;20640;-83
2023/08/14 02:29:50;;;;;;;5.00;4.50;;;;;;;21.62;100.00;98233.19;4143379;28;20695;-83
2023/08/14 02:31:54;;;;;;;5.97;5.37;;;;;;;21.59;100.00;98231.72;4141433;28;20653;-75
2023/08/14 02:33:59;;;;;;;5.07;4.57;;;;;;;21.57;100.00;98228.41;4129879;28;20632;-74
2023/08/14 02:36:02;;;;;;;6.80;5.13;;;;;;;21.55;100.00;98232.25;4132830;28;21065;-74
2023/08/14 02:38:06;;;;;;;6.30;5.70;;;;;;;21.55;100.00;98224.28;4141703;28;20663;-75
2023/08/14 02:40:12;;;;;;;6.00;5.40;;;;;;;21.56;100.00;98229.41;4142447;28;20625;-74
2023/08/14 02:42:15;;;;;;;6.50;5.80;;;;;;;21.60;100.00;98232.56;4150043;28;20742;-75
2023/08/14 02:44:19;;;;;;;7.40;5.80;;;;;;;21.63;100.00;98218.94;4134578;28;20675;-74
2023/08/14 02:46:22;;;;;;;6.73;6.03;;;;;;;21.68;100.00;98222.75;4131998;28;20652;-75
2023/08/14 02:48:26;;;;;;;8.30;5.60;;;;;;;21.71;100.00;98214.44;4137212;28;20680;-75
2023/08/14 02:50:30;;;;;;;6.40;5.80;;;;;;;21.73;100.00;98223.06;4153176;28;20697;-75
2023/08/14 02:52:34;;;;;;;9.93;5.67;;;;;;;21.77;100.00;98232.34;4119064;28;20637;-74
2023/08/14 02:54:37;;;;;;;6.00;5.40;;;;;;;21.81;100.00;98231.00;4133431;28;20619;-75
2023/08/14 02:56:39;;;;;;;6.53;5.90;;;;;;;21.82;100.00;98228.16;4147306;28;20625;-76
2023/08/14 02:58:42;;;;;;;11.47;6.00;;;;;;;21.85;100.00;98222.53;4136478;28;20633;-75
2023/08/14 03:00:46;;;;;;;5.93;5.33;;;;;;;21.85;100.00;98224.34;4132630;28;20626;-75
2023/08/14 03:02:48;;;;;;;6.23;4.70;;;;;;;21.81;100.00;98213.25;4138239;28;20688;-74
2023/08/14 03:04:53;;;;;;;5.80;5.17;;;;;;;21.85;100.00;98211.06;4137283;28;20665;-75
2023/08/14 03:06:55;;;;;;;5.10;4.60;;;;;;;21.84;100.00;98201.44;4145528;28;20629;-75
2023/08/14 03:08:58;;;;;;;5.23;4.70;;;;;;;21.86;100.00;98197.63;4136408;28;20645;-75
2023/08/14 03:11:03;;;;;;;4.67;4.10;;;;;;;21.87;100.00;98193.13;4151516;28;20767;-75
2023/08/14 03:13:05;;;;;;;5.57;5.03;;;;;;;21.88;100.00;98189.47;4125531;28;20645;-75
2023/08/14 03:15:09;;;;;;;5.63;4.30;;;;;;;21.87;100.00;98185.16;4156769;28;20621;-76
2023/08/14 03:17:12;;;;;;;4.13;3.70;;;;;;;21.87;100.00;98185.16;4160176;28;20647;-74
2023/08/14 03:19:16;;;;;;;4.40;3.97;;;;;;;21.89;100.00;98188.47;4140996;28;21190;-75
2023/08/14 03:21:20;;;;;;;5.13;4.27;;;;;;;21.91;100.00;98186.47;4138932;28;20642;-76
2023/08/14 03:23:23;;;;;;;4.47;4.07;;;;;;;21.90;100.00;98184.81;4140626;28;20692;-75
2023/08/14 03:25:26;;;;;;;5.33;3.60;;;;;;;21.91;100.00;98189.13;4141588;28;20662;-74
2023/08/14 03:27:29;;;;;;;4.40;4.00;;;;;;;21.93;100.00;98193.25;4129792;28;20684;-75
2023/08/14 03:29:34;;;;;;;5.60;4.00;;;;;;;21.95;100.00;98196.59;4143362;28;20654;-74
2023/08/14 03:31:37;;;;;;;4.63;3.80;;;;;;;21.97;100.00;98191.91;4140563;28;20675;-75
2023/08/14 03:33:40;;;;;;;4.37;3.80;;;;;;;21.97;100.00;98201.75;4138405;28;21081;-74
2023/08/14 03:35:45;;;;;;;6.07;4.30;;;;;;;21.94;100.00;98192.28;4138588;28;20632;-75
2023/08/14 03:37:51;;;;;;;5.07;4.57;;;;;;;21.93;100.00;98189.78;4138272;28;20699;-74
2023/08/14 03:39:55;;;;;;;4.77;4.20;;;;;;;21.89;100.00;98197.28;4139659;28;20644;-74
2023/08/14 03:41:58;;;;;;;4.17;3.70;;;;;;;21.84;100.00;98186.31;4135457;28;21261;-74
2023/08/14 03:44:02;;;;;;;4.13;3.73;;;;;;;21.78;100.00;98175.56;4146829;28;20625;-76
2023/08/14 03:46:05;;;;;;;4.00;3.60;;;;;;;21.73;100.00;98167.28;4154665;28;20638;-75
2023/08/14 03:48:07;;;;;;;4.30;3.90;;;;;;;21.69;100.00;98162.50;4153866;28;20800;-76
2023/08/14 03:50:10;;;;;;;5.57;3.37;;;;;;;21.64;100.00;98157.69;4128051;28;20634;-77
2023/08/14 03:52:14;;;;;;;5.00;3.50;;;;;;;21.62;100.00;98165.00;4119017;28;20661;-76
2023/08/14 03:54:19;;;;;;;5.20;3.40;;;;;;;21.60;100.00;98168.81;4148685;28;20667;-75
2023/08/14 03:56:22;;;;;;;4.10;3.50;;;;;;;21.59;100.00;98152.06;4155267;28;20611;-75
2023/08/14 03:58:25;;;;;;;4.23;3.60;;;;;;;21.58;100.00;98154.91;4127739;28;20629;-75
2023/08/14 04:00:31;;;;;;;4.67;3.37;;;;;;;21.53;100.00;98170.50;4131723;28;20638;-75
2023/08/14 04:02:34;;;;;;;3.63;3.33;;;;;;;21.49;100.00;98172.66;4156667;28;20982;-74
2023/08/14 04:04:37;;;;;;;3.97;3.57;;;;;;;21.51;100.00;98186.59;4126479;28;20697;-74
2023/08/14 04:06:42;;;;;;;4.37;3.33;;;;;;;21.52;100.00;98177.63;4151604;28;21655;-75
2023/08/14 04:08:45;;;;;;;4.03;3.33;;;;;;;21.53;100.00;98179.31;4130741;28;20644;-75
2023/08/14 04:10:55;;;;;;;4.13;3.73;;;;;;;21.53;100.00;98179.31;4145489;28;20640;-75
2023/08/14 04:12:58;;;;;;;4.90;3.80;;;;;;;21.53;100.00;98181.97;4154895;28;20639;-75
2023/08/14 04:15:12;;;;;;;3.80;3.33;;;;;;;21.53;100.00;98192.59;4138376;28;20627;-75
2023/08/14 04:17:15;;;;;;;4.10;3.60;;;;;;;21.53;100.00;98186.44;4133663;28;20617;-74
2023/08/14 04:19:20;;;;;;;4.07;3.67;;;;;;;21.53;100.00;98183.78;4146745;28;20642;-75
2023/08/14 04:21:23;;;;;;;4.33;3.70;;;;;;;21.53;100.00;98168.69;4137301;28;20754;-75
2023/08/14 04:23:28;;;;;;;4.20;3.60;;;;;;;21.51;100.00;98175.16;4156452;28;20679;-75
2023/08/14 04:25:31;;;;;;;5.00;4.10;;;;;;;21.50;100.00;98178.78;4155999;28;20647;-75
2023/08/14 04:27:36;;;;;;;6.97;4.10;;;;;;;21.50;100.00;98184.09;4137754;28;21220;-74
2023/08/14 04:29:39;;;;;;;4.30;3.90;;;;;;;21.49;100.00;98191.25;4136726;28;20729;-75
2023/08/14 04:31:42;;;;;;;4.10;3.70;;;;;;;21.48;100.00;98197.56;4139349;28;20661;-75
2023/08/14 04:33:45;;;;;;;7.60;4.07;;;;;;;21.47;100.00;98198.56;4136993;28;20621;-75
2023/08/14 04:35:49;;;;;;;5.00;3.93;;;;;;;21.46;100.00;98194.25;4135362;28;20662;-74
2023/08/14 04:37:52;;;;;;;6.90;4.10;;;;;;;21.45;100.00;98195.22;4139329;28;20699;-76
2023/08/14 04:39:55;;;;;;;4.67;4.17;;;;;;;21.44;100.00;98204.19;4156630;28;20739;-75
2023/08/14 04:41:58;;;;;;;5.50;4.20;;;;;;;21.42;100.00;98184.09;4146846;28;20643;-75
2023/08/14 04:44:05;;;;;;;4.40;4.00;;;;;;;21.41;100.00;98180.63;4136249;28;20720;-75
2023/08/14 04:46:10;;;;;;;6.13;4.53;;;;;;;21.40;100.00;98172.84;4128434;28;20725;-74
2023/08/14 04:48:13;;;;;;;4.53;4.10;;;;;;;21.38;100.00;98165.03;4144230;28;20640;-74
2023/08/14 04:50:17;;;;;;;7.23;3.90;;;;;;;21.34;100.00;98161.06;4120706;28;20642;-74
2023/08/14 04:52:22;;;;;;;3.90;3.50;;;;;;;21.36;100.00;98167.03;4129266;28;20658;-74
2023/08/14 04:54:27;;;;;;;3.90;3.50;;;;;;;21.34;100.00;98166.38;4126199;28;20641;-74
2023/08/14 04:56:31;;;;;;;5.00;3.10;;;;;;;21.31;100.00;98172.00;4141517;28;20652;-75
2023/08/14 04:58:34;;;;;;;4.03;3.60;;;;;;;21.30;100.00;98194.25;4130710;28;20621;-76
2023/08/14 05:00:39;;;;;;;4.50;3.13;;;;;;;21.30;100.00;98196.91;4128528;28;20692;-75
2023/08/14 05:02:45;;;;;;;6.97;3.80;;;;;;;21.32;100.00;98202.88;4150790;28;21010;-74
2023/08/14 05:04:49;;;;;;;5.07;4.03;;;;;;;21.33;100.00;98193.06;4148460;28;20673;-74
2023/08/14 05:06:52;;;;;;;4.30;3.90;;;;;;;21.34;100.00;98200.88;4128474;28;20637;-76
2023/08/14 05:08:56;;;;;;;6.30;4.70;;;;;;;21.37;100.00;98203.19;4134205;28;20638;-75
2023/08/14 05:11:01;;;;;;;5.43;4.93;;;;;;;21.40;100.00;98205.50;4126415;28;20679;-75
2023/08/14 05:13:04;;;;;;;5.10;4.40;;;;;;;21.42;100.00;98190.25;4155341;28;20660;-74
2023/08/14 05:15:09;;;;;;;5.07;3.90;;;;;;;21.43;100.00;98193.72;4119096;28;20674;-75
2023/08/14 05:17:13;;;;;;;4.30;3.73;;;;;;;21.45;100.00;98197.88;4115416;28;20626;-74
2023/08/14 05:19:16;;;;;;;4.30;3.90;;;;;;;21.50;100.00;98197.38;4114593;28;20695;-76
2023/08/14 05:21:19;;;;;;;5.03;4.20;;;;;;;21.52;100.00;98190.09;4157209;28;20619;-74
2023/08/14 05:23:22;;;;;;;4.43;3.70;;;;;;;21.54;100.00;98183.59;4138913;28;20714;-75
2023/08/14 05:25:24;;;;;;;5.40;4.00;;;;;;;21.57;100.00;98179.78;4157421;28;20662;-75
2023/08/14 05:27:27;;;;;;;5.57;4.37;;;;;;;21.57;100.00;98167.31;4156416;28;21008;-75
2023/08/14 05:29:30;;;;;;;7.50;6.67;;;;;;;21.60;100.00;98174.94;4159254;28;21052;-75
2023/08/14 05:31:33;;;;;;;4.50;3.80;;;;;;;21.67;100.00;98191.06;4135750;28;20715;-75
2023/08/14 05:33:38;;;;;;;4.17;3.77;;;;;;;21.72;100.00;98204.66;4139707;28;21019;-75
2023/08/14 05:35:43;;;;;;;4.87;4.30;;;;;;;21.79;100.00;98193.97;4144594;28;20634;-76
2023/08/14 05:37:46;;;;;;;6.90;4.27;;;;;;;21.84;100.00;98196.94;4143128;28;20995;-75
2023/08/14 05:39:49;;;;;;;3.83;3.43;;;;;;;22.01;100.00;98184.44;4139335;28;20970;-75
2023/08/14 05:41:52;;;;;;;4.33;3.20;;;;;;;22.26;100.00;98178.84;4128728;28;21451;-74
2023/08/14 05:43:55;;;;;;;3.70;2.80;;;;;;;22.41;100.00;98177.91;4135171;28;20665;-75
2023/08/14 05:45:58;;;;;;;4.50;3.83;;;;;;;22.39;100.00;98173.81;4137976;28;20635;-75
2023/08/14 05:48:02;;;;;;;3.30;2.77;;;;;;;22.55;100.00;98181.66;4157214;28;20631;-75
2023/08/14 05:50:06;;;;;;;3.40;2.70;;;;;;;22.95;100.00;98180.38;4159100;28;20627;-75
2023/08/14 05:52:09;;;;;;;3.37;3.00;;;;;;;23.44;100.00;98177.09;4159738;28;20712;-75
2023/08/14 05:54:12;;;;;;;3.77;3.00;;;;;;;23.88;100.00;98183.31;4135982;28;20669;-75
2023/08/14 05:56:16;;;;;;;4.13;2.90;;;;;;;24.26;100.00;98183.78;4135072;28;20634;-74
2023/08/14 05:58:19;;;;;;;3.17;2.83;;;;;;;24.57;100.00;98186.22;4139966;28;21190;-75
2023/08/14 06:00:22;;;;;;;6.30;2.93;;;;;;;24.85;100.00;98182.59;4143956;28;20671;-75
2023/08/14 06:02:26;;;;;;;3.00;2.40;;;;;;;25.08;100.00;98192.13;4138512;28;20641;-84
2023/08/14 06:04:29;;;;;;;3.33;3.03;;;;;;;25.30;99.87;98180.38;4158391;28;21007;-83
2023/08/14 06:06:33;;;;;;;3.70;2.50;;;;;;;25.22;99.73;98180.53;4157626;28;20647;-83
2023/08/14 06:08:35;;;;;;;3.20;2.57;;;;;;;24.98;98.81;98170.22;4154329;28;20612;-82
2023/08/14 06:10:39;;;;;;;3.60;3.30;;;;;;;24.77;98.86;98164.06;4134815;28;20645;-82
2023/08/14 06:12:43;;;;;;;4.53;2.70;;;;;;;24.64;100.00;98158.56;4153537;28;21239;-83
2023/08/14 06:14:46;;;;;;;5.43;3.10;;;;;;;24.62;100.00;98163.28;4155307;28;20649;-83
2023/08/14 06:16:49;;;;;;;3.70;2.90;;;;;;;24.57;100.00;98154.19;4156736;28;21230;-83
2023/08/14 06:18:52;;;;;;;3.40;2.60;;;;;;;24.44;100.00;98154.88;4144891;28;20650;-84
2023/08/14 06:20:56;;;;;;;4.00;3.10;;;;;;;24.32;100.00;98156.38;4140338;28;20653;-84
2023/08/14 06:23:01;;;;;;;4.10;3.20;;;;;;;24.25;100.00;98146.63;4138650;28;20687;-84
2023/08/14 06:25:04;;;;;;;4.00;3.53;;;;;;;24.22;100.00;98149.66;4155344;28;20628;-83
2023/08/14 06:27:07;;;;;;;3.23;2.93;;;;;;;24.16;100.00;98142.44;4155814;28;20680;-82
2023/08/14 06:29:10;;;;;;;4.03;3.17;;;;;;;24.12;100.00;98149.16;4140293;28;20633;-84
2023/08/14 06:31:13;;;;;;;3.67;3.17;;;;;;;24.10;100.00;98145.00;4159098;28;21270;-84
2023/08/14 06:33:16;;;;;;;4.87;3.67;;;;;;;24.07;100.00;98148.06;4138925;28;21275;-83
2023/08/14 06:35:19;;;;;;;4.87;3.60;;;;;;;24.01;100.00;98154.97;4158787;28;20617;-82
2023/08/14 06:37:22;;;;;;;5.00;3.40;;;;;;;23.97;100.00;98164.34;4151934;28;20643;-83
2023/08/14 06:39:27;;;;;;;4.80;3.70;;;;;;;23.88;100.00;98159.31;4121958;28;21299;-82
2023/08/14 06:41:30;;;;;;;3.60;3.30;;;;;;;23.83;100.00;98164.34;4144873;28;20640;-84
2023/08/14 06:43:39;;;;;;;5.33;3.70;;;;;;;23.80;100.00;98175.38;4126293;28;21037;-83
2023/08/14 06:45:42;;;;;;;4.57;4.07;;;;;;;23.78;100.00;98172.09;4155514;28;20637;-81
2023/08/14 06:47:46;;;;;;;4.60;4.03;;;;;;;23.76;100.00;98158.94;4145090;28;21094;-83
2023/08/14 06:49:49;;;;;;;4.53;4.10;;;;;;;23.73;100.00;98155.81;4136771;28;20724;-83
2023/08/14 06:51:52;;;;;;;5.60;4.13;;;;;;;23.73;100.00;98155.81;4152565;28;20627;-83
2023/08/14 06:53:55;;;;;;;5.43;4.93;;;;;;;23.76;100.00;98137.63;4153812;28;20722;-84
2023/08/14 06:56:00;;;;;;;5.40;4.80;;;;;;;23.78;100.00;98134.78;4122369;28;20642;-83
2023/08/14 06:58:04;;;;;;;5.60;5.00;;;;;;;23.85;100.00;98136.50;4155320;28;21193;-83
2023/08/14 07:00:12;;;;;;;5.30;4.63;;;;;;;24.06;100.00;98143.75;4137688;28;20667;-82
2023/08/14 07:02:15;;;;;;;5.80;4.30;;;;;;;24.27;100.00;98158.78;4130202;28;20640;-83
2023/08/14 07:04:19;;;;;;;5.10;4.07;;;;;;;24.34;100.00;98153.53;4130943;28;21248;-83
2023/08/14 07:06:22;;;;;;;4.50;4.10;;;;;;;24.31;100.00;98160.06;4138532;28;20739;-82
2023/08/14 07:08:25;;;;;;;4.50;4.10;;;;;;;24.29;100.00;98167.41;4152678;28;21039;-83
2023/08/14 07:10:28;;;;;;;4.57;4.03;;;;;;;24.27;100.00;98166.78;4155191;28;20646;-81
2023/08/14 07:12:33;;;;;;;4.77;3.80;;;;;;;24.32;100.00;98156.38;4142229;28;20636;-84
2023/08/14 07:14:36;;;;;;;5.00;4.30;;;;;;;24.72;100.00;98163.81;4153871;28;20953;-82
2023/08/14 07:16:40;;;;;;;6.00;5.40;;;;;;;25.14;100.00;98167.31;4155679;28;20615;-83
2023/08/14 07:18:43;;;;;;;6.77;4.70;;;;;;;25.38;100.00;98170.38;4124181;28;20641;-82
2023/08/14 07:20:46;;;;;;;5.47;4.50;;;;;;;25.72;100.00;98173.09;4156543;28;21264;-83
2023/08/14 07:22:49;;;;;;;8.63;4.37;;;;;;;26.00;100.00;98173.88;4158737;28;20629;-84
2023/08/14 07:24:52;;;;;;;5.57;4.70;;;;;;;26.15;100.00;98170.03;4135043;28;20999;-83
2023/08/14 07:26:57;;;;;;;5.60;4.73;;;;;;;26.32;100.00;98169.50;4138664;28;20983;-83
2023/08/14 07:29:02;;;;;;;5.23;4.30;;;;;;;26.24;100.00;98166.97;4155729;28;20621;-83
2023/08/14 07:31:05;;;;;;;6.17;4.63;;;;;;;26.44;99.64;98162.53;4145967;28;20626;-83
2023/08/14 07:33:10;;;;;;;4.10;3.30;;;;;;;26.65;97.35;98165.88;4148866;28;20634;-83
2023/08/14 07:35:13;;;;;;;5.43;4.13;;;;;;;26.83;96.75;98168.81;4150065;28;20643;-80
2023/08/14 07:37:16;;;;;;;4.73;3.40;;;;;;;26.99;95.57;98165.78;4153832;28;21243;-82
2023/08/14 07:39:18;;;;;;;8.73;3.63;;;;;;;27.15;97.26;98163.53;4152093;28;20641;-82
2023/08/14 07:41:21;;;;;;;4.70;4.00;;;;;;;27.34;95.79;98168.03;4163233;28;20630;-83
2023/08/14 07:43:24;;;;;;;5.97;3.17;;;;;;;27.46;92.54;98157.53;4162147;28;20613;-84
2023/08/14 07:45:28;;;;;;;7.80;3.90;;;;;;;27.64;93.71;98163.91;4146555;28;20638;-83
2023/08/14 07:47:31;;;;;;;5.80;3.70;;;;;;;27.88;92.72;98166.75;4155535;28;20636;-83
2023/08/14 07:49:34;;;;;;;4.13;3.30;;;;;;;28.06;90.35;98167.72;4155610;28;20683;-83
2023/08/14 07:51:38;;;;;;;4.30;2.93;;;;;;;28.19;89.85;98161.50;4158226;28;20634;-84
2023/08/14 07:53:41;;;;;;;3.33;2.83;;;;;;;28.30;88.21;98161.66;4142196;28;21275;-84
2023/08/14 07:55:44;;;;;;;3.10;2.70;;;;;;;28.46;90.45;98163.84;4141414;28;20667;-82
2023/08/14 07:57:46;;;;;;;3.67;3.37;;;;;;;28.59;89.68;98171.84;4159066;28;20647;-83
2023/08/14 07:59:49;;;;;;;4.40;3.10;;;;;;;28.72;88.63;98182.56;4155382;28;20631;-83
2023/08/14 08:01:54;;;;;;;3.97;2.87;;;;;;;28.77;86.62;98174.66;4157546;28;20634;-82
2023/08/14 08:03:57;;;;;;;3.37;2.53;;;;;;;28.74;85.64;98161.66;4157852;28;20645;-83
2023/08/14 08:06:00;;;;;;;3.03;2.57;;;;;;;28.74;86.38;98153.59;4155668;28;20648;-80
2023/08/14 08:08:03;;;;;;;3.57;2.97;;;;;;;28.80;85.24;98155.44;4158532;28;21166;-83
2023/08/14 08:10:07;;;;;;;3.37;2.63;;;;;;;28.91;87.38;98160.09;4143791;28;20661;-82
2023/08/14 08:12:11;;;;;;;3.37;2.73;;;;;;;29.09;88.34;98161.84;4129032;28;20638;-82
2023/08/14 08:14:14;;;;;;;3.13;2.73;;;;;;;29.25;85.08;98169.38;4146296;28;20705;-84
2023/08/14 08:16:17;;;;;;;3.23;2.53;;;;;;;29.34;83.02;98168.06;4136658;28;20696;-83
2023/08/14 08:18:22;;;;;;;3.10;2.50;;;;;;;29.44;84.33;98163.00;4152886;28;20631;-81
2023/08/14 08:20:25;;;;;;;3.23;2.87;;;;;;;29.56;85.83;98158.56;4143195;28;21029;-83
2023/08/14 08:22:31;;;;;;;3.60;2.40;;;;;;;29.63;79.26;98157.41;4143006;28;20719;-83
2023/08/14 08:24:34;;;;;;;2.77;2.57;;;;;;;29.70;80.58;98160.06;4157742;28;20625;-75
2023/08/14 08:26:38;;;;;;;3.37;2.30;;;;;;;29.79;79.97;98167.66;4158605;28;20973;-75
2023/08/14 08:28:41;;;;;;;3.17;2.40;;;;;;;29.87;79.39;98174.63;4150256;28;21213;-75
2023/08/14 08:30:44;;;;;;;2.87;2.57;;;;;;;29.84;79.82;98172.38;4153063;28;21205;-75
2023/08/14 08:32:47;;;;;;;4.60;2.30;;;;;;;29.89;79.19;98169.81;4129110;28;20679;-75
2023/08/14 08:34:53;;;;;;;3.00;2.60;;;;;;;30.02;79.97;98162.44;4156777;28;21234;-76
2023/08/14 08:36:56;;;;;;;3.97;2.47;;;;;;;30.09;79.36;98169.38;4139522;28;20636;-73
2023/08/14 08:39:00;;;;;;;2.40;2.10;;;;;;;30.11;77.30;98161.88;4157574;28;20630;-73
2023/08/14 08:41:02;;;;;;;2.13;1.93;;;;;;;30.14;76.35;98166.00;4155382;28;20688;-75
2023/08/14 08:43:05;;;;;;;2.60;2.17;;;;;;;30.20;75.42;98163.22;4135126;28;21236;-74
2023/08/14 08:45:10;;;;;;;2.53;2.07;;;;;;;30.29;76.04;98161.06;4126247;28;20656;-73
2023/08/14 08:47:16;;;;;;;2.40;2.10;;;;;;;30.40;77.13;98161.19;4157431;28;21260;-75
2023/08/14 08:49:19;;;;;;;2.20;1.90;;;;;;;30.50;76.76;98164.13;4138581;28;20664;-74
2023/08/14 08:51:25;;;;;;;2.97;2.30;;;;;;;30.60;77.55;98165.22;4137060;28;20626;-73
2023/08/14 08:53:29;;;;;;;3.10;2.70;;;;;;;30.69;76.01;98161.16;4139033;28;20733;-74
2023/08/14 08:55:32;;;;;;;2.47;1.80;;;;;;;30.74;79.41;98155.09;4152954;28;20658;-73
2023/08/14 08:57:36;;;;;;;3.50;1.93;;;;;;;30.80;77.41;98159.56;4154194;28;20629;-73
2023/08/14 08:59:39;;;;;;;2.27;1.93;;;;;;;30.84;75.67;98152.66;4135968;28;20766;-73
2023/08/14 09:01:43;;;;;;;2.33;1.90;;;;;;;30.89;74.04;98142.06;4153891;28;20632;-74
2023/08/14 09:03:46;;;;;;;2.27;1.90;;;;;;;30.90;74.15;98146.38;4155855;28;20704;-74
2023/08/14 09:05:51;;;;;;;2.50;1.90;;;;;;;30.97;77.58;98156.00;4138968;28;20653;-73
2023/08/14 09:07:55;;;;;;;2.87;2.20;;;;;;;31.01;76.00;98149.09;4154354;28;20653;-72
2023/08/14 09:10:00;;;;;;;2.10;1.73;;;;;;;31.10;78.81;98155.81;4154158;28;20625;-73
2023/08/14 09:12:03;;;;;;;2.93;1.87;;;;;;;31.18;76.07;98155.47;4151661;28;20623;-76
2023/08/14 09:14:07;;;;;;;2.20;2.00;;;;;;;31.20;76.21;98153.34;4152609;28;20976;-74
2023/08/14 09:16:14;;;;;;;2.10;1.80;;;;;;;31.21;73.81;98150.41;4137237;28;20680;-73
2023/08/14 09:18:17;;;;;;;3.03;2.00;;;;;;;31.26;78.33;98150.56;4155681;28;20622;-73
2023/08/14 09:20:21;;;;;;;2.77;2.00;;;;;;;31.30;75.02;98146.31;4138341;28;20635;-74
2023/08/14 09:22:32;;;;;;;2.83;2.00;;;;;;;31.32;74.26;98148.78;4156207;28;20692;-72
2023/08/14 09:24:37;;;;;;;2.30;1.90;;;;;;;31.42;80.23;98147.19;4157920;28;20685;-72
2023/08/14 09:26:42;;;;;;;2.50;1.90;;;;;;;31.45;74.60;98136.78;4146057;28;20791;-73
2023/08/14 09:28:46;;;;;;;2.30;1.90;;;;;;;31.50;75.29;98141.47;4132542;28;20731;-73
2023/08/14 09:30:49;;;;;;;2.20;1.50;;;;;;;31.52;74.87;98139.34;4133683;28;20636;-75
2023/08/14 09:32:52;;;;;;;2.10;1.90;;;;;;;31.51;73.23;98129.59;4138102;28;20666;-74
2023/08/14 09:34:59;;;;;;;2.57;1.70;;;;;;;31.52;73.60;98131.25;4145161;28;20708;-72
2023/08/14 09:37:02;;;;;;;3.90;1.93;;;;;;;31.56;73.55;98129.75;4138545;28;20635;-73